Latest Weather Observations for Hopetoun North

IDW60801

Issued at 11:03 pm WST Wednesday 27 July 2016 (issued every 30 minutes, with the page automatically refreshed every 10 minutes)

About weather observations | Map of weather stations | Latest weather observations for WA | Other Formats
Station Details ID: 009961 Name: HOPETOUN NORTH Lat: -33.93 Lon: 120.13 Height: 26.0 m
Data from the previous 72 hours. | See also: Recent months at Hopetoun North
Date/Time
WST
Temp
°C
App
Temp
°C
Dew
Point
°C
Rel
Hum
%
Delta-T
°C
Wind Press
QNH
hPa
Press
MSL
hPa
Rain since
9am
mm
Dir  Spd
km/h
Gust
km/h
Spd
kts
Gust
kts
27/11:00pm 9.3 8.4 9.2 99 0.0 NW 4 6 2 3 1024.4 1024.4 0.0
27/10:30pm 10.3 9.0 10.1 99 0.1 N 7 9 4 5 1024.7 1024.7 0.0
27/10:00pm 10.6 9.1 10.4 99 0.1 NNE 9 11 5 6 1024.5 1024.5 0.0
27/09:30pm 10.8 9.3 10.6 99 0.1 NNE 9 11 5 6 1025.1 1025.1 0.0
27/09:00pm 10.7 9.6 10.5 99 0.1 N 7 13 4 7 1025.4 1025.4 0.0
27/08:30pm 10.6 9.4 10.4 99 0.1 NNE 7 9 4 5 1025.3 1025.3 0.0
27/08:00pm 10.4 10.1 10.1 98 0.2 N 2 6 1 3 1025.4 1025.4 0.0
27/07:30pm 10.7 9.4 10.1 96 0.3 NNE 7 9 4 5 1025.3 1025.3 0.0
27/07:00pm 11.7 10.8 10.6 93 0.6 N 6 9 3 5 1025.2 1025.2 0.0
27/06:30pm 12.1 10.6 10.7 91 0.7 ENE 9 11 5 6 1024.9 1024.9 0.0
27/06:00pm 12.9 11.4 10.4 85 1.3 ENE 9 11 5 6 1024.8 1024.8 0.0
27/05:30pm 13.6 12.2 10.8 83 1.5 E 9 13 5 7 1024.7 1024.7 0.0
27/05:00pm 14.4 13.0 11.0 80 1.8 E 9 11 5 6 1024.5 1024.5 0.0
27/04:30pm 15.0 13.9 10.8 76 2.2 ESE 7 11 4 6 1024.4 1024.4 0.0
27/04:00pm 15.9 14.1 10.9 72 2.7 ESE 11 17 6 9 1024.5 1024.5 0.0
27/03:30pm 16.3 14.0 10.4 68 3.1 ESE 13 17 7 9 1024.6 1024.6 0.0
27/03:00pm 17.0 14.7 10.6 66 3.4 SE 13 17 7 9 1024.3 1024.3 0.0
27/02:30pm 17.1 15.2 10.5 65 3.5 SSE 11 17 6 9 1024.5 1024.5 0.0
27/02:00pm 17.1 14.7 10.2 64 3.6 SSE 13 17 7 9 1024.4 1024.4 0.0
27/01:30pm 17.4 15.4 10.3 63 3.8 SSE 11 17 6 9 1024.6 1024.6 0.0
27/01:00pm 17.9 16.3 10.3 61 4.0 SSW 9 17 5 9 1024.9 1024.9 0.0
27/12:30pm 17.2 15.5 9.9 62 3.8 SSW 9 17 5 9 1025.6 1025.6 0.0
27/12:00pm 17.5 15.3 9.2 58 4.3 WNW 11 20 6 11 1026.4 1026.4 0.0
27/11:30am 17.5 16.0 9.2 58 4.3 NNW 7 11 4 6 1026.4 1026.4 0.0
27/11:00am 16.6 14.7 9.1 61 3.9 NNW 9 17 5 9 1027.5 1027.5 0.0
27/10:30am 16.5 14.3 9.4 63 3.7 NNW 11 19 6 10 1028.0 1028.0 0.0
27/10:00am 16.6 14.6 10.0 65 3.5 NNW 11 19 6 10 1028.1 1028.1 0.0
27/09:30am 15.9 14.0 10.4 70 2.9 NNW 11 17 6 9 1028.1 1028.1 0.0
27/09:00am 14.9 13.6 11.1 78 2.0 NNW 9 13 5 7 1028.1 1028.1 -
27/08:30am 13.8 12.5 11.3 85 1.3 NNW 9 13 5 7 1027.8 1027.8 -
27/08:00am 13.1 12.3 11.8 92 0.7 N 7 11 4 6 1027.3 1027.3 -
27/07:30am 11.9 12.0 11.6 98 0.2 N 2 6 1 3 1027.1 1027.1 -
27/07:00am 11.8 11.2 11.6 99 0.1 NNW 6 7 3 4 1027.2 1027.2 -
27/06:30am 12.1 11.4 11.9 99 0.1 NNW 7 9 4 5 1027.3 1027.3 -
27/06:00am 12.2 11.5 12.0 99 0.1 N 7 9 4 5 1027.2 1027.2 -
27/05:30am 12.3 11.8 12.1 99 0.1 NNW 6 9 3 5 1027.2 1027.2 -
27/05:00am 12.5 12.1 12.3 99 0.1 NNW 6 7 3 4 1026.8 1026.8 -
27/04:30am 12.5 12.1 12.3 99 0.1 NNW 6 7 3 4 1026.5 1026.5 -
27/04:00am 12.5 12.1 12.3 99 0.1 NW 6 7 3 4 1026.5 1026.5 -
27/03:30am 12.6 12.2 12.4 99 0.1 NW 6 9 3 5 1026.5 1026.5 -
27/03:00am 12.4 11.9 12.2 99 0.1 WNW 6 6 3 3 1026.6 1026.6 0.0
27/02:30am 12.4 11.9 12.2 99 0.1 NW 6 7 3 4 1026.8 1026.8 -
27/02:00am 12.4 11.9 12.2 99 0.1 NW 6 7 3 4 1026.8 1026.8 -
27/01:30am 12.4 11.9 12.2 99 0.1 WNW 6 7 3 4 1027.0 1027.0 -
27/01:00am 12.3 11.8 12.1 99 0.1 NW 6 7 3 4 1027.1 1027.1 -
27/12:30am 12.2 11.7 12.2 100 0.0 WNW 6 7 3 4 1027.1 1027.1 -
27/12:00am 12.2 11.6 12.2 100 0.0 NW 7 7 4 4 1027.1 1027.1 -
 
Date/Time
WST
Temp
°C
App
Temp
°C
Dew
Point
°C
Rel
Hum
%
Delta-T
°C
Wind Press
QNH
hPa
Press
MSL
hPa
Rain since
9am
mm
Dir  Spd
km/h
Gust
km/h
Spd
kts
Gust
kts
26/11:30pm 12.2 11.6 12.2 100 0.0 NW 7 9 4 5 1027.2 1027.2 -
26/11:00pm 12.3 11.7 12.3 100 0.0 NW 7 9 4 5 1027.1 1027.1 -
26/10:30pm 12.4 11.8 12.4 100 0.0 NW 7 7 4 4 1027.1 1027.1 -
26/10:00pm 12.6 12.3 12.6 100 0.0 NNW 6 6 3 3 1027.1 1027.1 -
26/09:30pm 12.7 12.4 12.7 100 0.0 NNW 6 7 3 4 1027.1 1027.1 -
26/09:00pm 12.7 12.2 12.7 100 0.0 NW 7 9 4 5 1027.1 1027.1 0.2
26/08:30pm 13.0 12.8 13.0 100 0.0 W 6 7 3 4 1027.0 1027.0 -
26/08:00pm 13.0 13.2 13.0 100 0.0 W 4 6 2 3 1027.0 1027.0 -
26/07:30pm 12.9 12.7 12.9 100 0.0 SW 6 9 3 5 1027.0 1027.0 -
26/07:00pm 13.2 12.9 13.2 100 0.0 SSW 7 11 4 6 1026.7 1026.7 -
26/06:30pm 13.7 13.1 13.5 99 0.1 WSW 9 17 5 9 1026.4 1026.4 -
26/06:00pm 13.9 11.7 13.3 96 0.3 WSW 17 22 9 12 1026.1 1026.1 -
26/05:30pm 14.6 14.1 13.8 95 0.4 SW 9 15 5 8 1025.9 1025.9 -
26/05:00pm 15.1 13.7 13.3 89 1.0 SW 13 19 7 10 1025.8 1025.8 -
26/04:30pm 15.0 14.2 13.9 93 0.6 SW 11 19 6 10 1025.8 1025.8 -
26/04:00pm 15.7 13.4 14.6 93 0.6 SW 20 28 11 15 1025.7 1025.7 -
26/03:30pm 15.8 13.7 13.6 87 1.2 SW 17 22 9 12 1025.4 1025.4 -
26/03:00pm 16.8 14.1 12.9 78 2.2 SW 19 32 10 17 1025.3 1025.3 -
26/02:30pm 16.8 14.0 12.7 77 2.3 WSW 19 30 10 16 1025.2 1025.2 -
26/02:00pm 17.0 14.0 12.7 76 2.4 WSW 20 30 11 16 1025.1 1025.1 -
26/01:30pm 16.9 13.9 12.6 76 2.4 WSW 20 32 11 17 1025.0 1025.0 -
26/01:00pm 16.2 13.0 12.0 76 2.3 WSW 20 30 11 16 1025.0 1025.0 -
26/12:30pm 16.4 12.9 12.2 76 2.3 SW 22 30 12 16 1025.1 1025.1 -
26/10:30am - - - - - W 24 32 13 17 1025.9 1025.9 0.0
26/10:00am - - - - - W 20 28 11 15 1025.9 1025.9 0.0
26/09:30am - - - - - W 17 26 9 14 1025.8 1025.8 0.0
26/09:00am - - - - - WNW 13 20 7 11 1025.8 1025.8 0.0
26/08:30am - - - - - WNW 15 20 8 11 1025.6 1025.6 0.0
26/08:00am - - - - - W 20 30 11 16 1025.3 1025.3 0.0
26/07:30am - - - - - WNW 13 20 7 11 1025.0 1025.0 0.0
26/07:00am - - - - - WNW 19 32 10 17 1024.4 1024.4 0.0
26/06:30am - - - - - W 20 32 11 17 1024.2 1024.2 0.0
26/06:00am - - - - - WNW 15 24 8 13 1024.1 1024.1 0.0
26/05:30am - - - - - WNW 15 22 8 12 1023.8 1023.8 0.0
26/05:00am - - - - - WNW 15 22 8 12 1023.7 1023.7 0.0
26/04:30am - - - - - WNW 13 19 7 10 1023.7 1023.7 0.0
26/04:00am - - - - - WNW 15 24 8 13 1023.7 1023.7 0.0
26/03:30am - - - - - WNW 15 20 8 11 1023.6 1023.6 0.0
26/03:00am - - - - - WNW 15 22 8 12 1023.6 1023.6 0.0
26/02:30am - - - - - WNW 15 24 8 13 1023.7 1023.7 0.0
26/02:00am - - - - - WNW 11 17 6 9 1023.9 1023.9 0.0
26/01:30am - - - - - WNW 13 22 7 12 1024.1 1024.1 0.0
26/01:00am - - - - - WNW 9 17 5 9 1024.2 1024.2 0.0
26/12:30am - - - - - NW 9 15 5 8 1024.2 1024.2 0.0
26/12:00am - - - - - NW 9 13 5 7 1024.5 1024.5 0.0
 
Date/Time
WST
Temp
°C
App
Temp
°C
Dew
Point
°C
Rel
Hum
%
Delta-T
°C
Wind Press
QNH
hPa
Press
MSL
hPa
Rain since
9am
mm
Dir  Spd
km/h
Gust
km/h
Spd
kts
Gust
kts
25/11:30pm - - - - - NNW 9 13 5 7 1024.5 1024.5 0.0
25/11:00pm - - - - - NW 6 9 3 5 1024.5 1024.5 0.0
25/10:30pm - - - - - NW 9 13 5 7 1024.6 1024.6 0.0
25/10:00pm - - - - - WNW 9 13 5 7 1025.2 1025.2 0.0
25/09:30pm - - - - - WNW 9 13 5 7 1025.2 1025.2 0.0
25/09:00pm - - - - - NW 7 11 4 6 1025.2 1025.2 0.0
25/08:30pm - - - - - NNW 6 7 3 4 1025.3 1025.3 0.0
25/08:00pm - - - - - NNW 6 6 3 3 1025.2 1025.2 0.0
25/07:30pm - - - - - NNW 4 4 2 2 1025.1 1025.1 0.0
25/07:00pm - - - - - SSW 2 4 1 2 1024.9 1024.9 0.0
25/06:30pm - - - - - SSW 6 7 3 4 1024.6 1024.6 0.0
25/06:00pm - - - - - SW 4 6 2 3 1024.4 1024.4 0.0
25/05:30pm - - - - - SW 6 7 3 4 1024.3 1024.3 0.0
25/05:00pm - - - - - SSW 11 17 6 9 1024.3 1024.3 0.0
25/04:30pm - - - - - S 11 17 6 9 1024.2 1024.2 0.0
25/04:00pm - - - - - SSW 13 19 7 10 1024.1 1024.1 0.0
25/03:30pm - - - - - SW 13 17 7 9 1024.1 1024.1 0.0
25/03:00pm - - - - - WSW 9 13 5 7 1023.9 1023.9 0.0
25/02:30pm - - - - - SW 13 19 7 10 1023.8 1023.8 0.0
25/02:00pm - - - - - SSW 19 24 10 13 1024.0 1024.0 0.0
25/01:30pm - - - - - SSW 22 28 12 15 1024.1 1024.1 0.0
25/01:00pm - - - - - SSW 19 22 10 12 1024.4 1024.4 0.0
25/12:30pm - - - - - SW 24 33 13 18 1024.7 1024.7 0.0
25/12:00pm - - - - - SW 22 28 12 15 1025.0 1025.0 0.0
25/11:30am - - - - - WSW 20 28 11 15 1025.5 1025.5 0.0
25/11:00am - - - - - WSW 19 26 10 14 1025.8 1025.8 0.0
25/10:30am - - - - - WSW 17 20 9 11 1026.0 1026.0 0.0
25/10:00am - - - - - WSW 15 24 8 13 1026.0 1026.0 0.0
25/09:30am - - - - - W 15 22 8 12 1026.0 1026.0 0.0
25/09:00am - - - - - W 15 24 8 13 1025.8 1025.8 0.0
25/08:30am - - - - - WNW 9 15 5 8 1025.7 1025.7 0.0
25/08:00am - - - - - W 15 20 8 11 1025.7 1025.7 0.0
25/07:30am - - - - - W 11 17 6 9 1025.4 1025.4 0.0
25/07:00am - - - - - WNW 9 17 5 9 1025.1 1025.1 0.0
25/06:30am - - - - - W 13 19 7 10 1024.8 1024.8 0.0
25/06:00am - - - - - W 13 22 7 12 1024.5 1024.5 0.0
25/05:30am - - - - - W 11 22 6 12 1024.2 1024.2 0.0
25/05:00am - - - - - WNW 13 19 7 10 1024.0 1024.0 0.0
25/04:30am - - - - - WNW 13 19 7 10 1023.9 1023.9 0.0
25/04:00am - - - - - WNW 15 22 8 12 1023.9 1023.9 0.0
25/03:30am - - - - - WNW 13 19 7 10 1024.0 1024.0 0.0
25/03:00am - - - - - W 17 24 9 13 1024.1 1024.1 0.0
25/02:30am - - - - - W 20 28 11 15 1024.0 1024.0 0.0
25/02:00am - - - - - WNW 15 22 8 12 1024.4 1024.4 0.0
25/01:30am - - - - - WNW 19 26 10 14 1024.4 1024.4 0.0
25/01:00am - - - - - WNW 17 26 9 14 1024.4 1024.4 0.0
25/12:30am - - - - - WNW 17 24 9 13 1024.4 1024.4 0.0
25/12:00am - - - - - WNW 13 22 7 12 1024.5 1024.5 0.0
 
Date/Time
WST
Temp
°C
App
Temp
°C
Dew
Point
°C
Rel
Hum
%
Delta-T
°C
Wind Press
QNH
hPa
Press
MSL
hPa
Rain since
9am
mm
Dir  Spd
km/h
Gust
km/h
Spd
kts
Gust
kts
24/11:30pm - - - - - NW 11 17 6 9 1024.7 1024.7 0.0

Other Formats:

Comma delimited format used in spreadsheet applications
http://www.bom.gov.au/fwo/IDW60801/IDW60801.95635.axf

JavaScript Object Notation format (JSON) in row-major order
http://www.bom.gov.au/fwo/IDW60801/IDW60801.95635.json